sensor_id;sensor_type;location;lat;lon;timestamp;P1;durP1;ratioP1;P2;durP2;ratioP2
45368;SDS011;51342;55.250;37.668;2023-08-01T00:05:16;5.97;;;4.88;;
45368;SDS011;51342;55.250;37.668;2023-08-01T00:07:47;5.55;;;4.47;;
45368;SDS011;51342;55.250;37.668;2023-08-01T00:10:19;7.28;;;4.25;;
45368;SDS011;51342;55.250;37.668;2023-08-01T00:12:50;5.38;;;4.45;;
45368;SDS011;51342;55.250;37.668;2023-08-01T00:15:21;6.22;;;4.47;;
45368;SDS011;51342;55.250;37.668;2023-08-01T00:17:56;6.85;;;4.45;;
45368;SDS011;51342;55.250;37.668;2023-08-01T00:20:27;5.25;;;4.35;;
45368;SDS011;51342;55.250;37.668;2023-08-01T00:22:59;7.13;;;4.25;;
45368;SDS011;51342;55.250;37.668;2023-08-01T00:25:30;7.95;;;4.70;;
45368;SDS011;51342;55.250;37.668;2023-08-01T00:28:02;6.05;;;4.53;;
45368;SDS011;51342;55.250;37.668;2023-08-01T00:30:33;5.13;;;4.00;;
45368;SDS011;51342;55.250;37.668;2023-08-01T00:33:05;5.97;;;4.60;;
45368;SDS011;51342;55.250;37.668;2023-08-01T00:35:36;6.55;;;4.68;;
45368;SDS011;51342;55.250;37.668;2023-08-01T00:38:07;6.32;;;4.53;;
45368;SDS011;51342;55.250;37.668;2023-08-01T00:40:39;6.30;;;4.63;;
45368;SDS011;51342;55.250;37.668;2023-08-01T00:43:10;6.45;;;4.40;;
45368;SDS011;51342;55.250;37.668;2023-08-01T00:45:42;8.93;;;4.43;;
45368;SDS011;51342;55.250;37.668;2023-08-01T00:48:13;6.82;;;4.32;;
45368;SDS011;51342;55.250;37.668;2023-08-01T00:50:45;6.07;;;4.20;;
45368;SDS011;51342;55.250;37.668;2023-08-01T00:53:18;8.85;;;4.68;;
45368;SDS011;51342;55.250;37.668;2023-08-01T00:55:51;6.88;;;4.43;;
45368;SDS011;51342;55.250;37.668;2023-08-01T00:58:24;4.55;;;4.00;;
45368;SDS011;51342;55.250;37.668;2023-08-01T01:00:56;5.97;;;4.63;;
45368;SDS011;51342;55.250;37.668;2023-08-01T01:03:28;5.13;;;4.63;;
45368;SDS011;51342;55.250;37.668;2023-08-01T01:06:22;6.07;;;4.65;;
45368;SDS011;51342;55.250;37.668;2023-08-01T01:08:54;7.38;;;4.75;;
45368;SDS011;51342;55.250;37.668;2023-08-01T01:11:27;6.38;;;4.55;;
45368;SDS011;51342;55.250;37.668;2023-08-01T01:13:58;6.60;;;4.68;;
45368;SDS011;51342;55.250;37.668;2023-08-01T01:16:30;6.00;;;4.93;;
45368;SDS011;51342;55.250;37.668;2023-08-01T01:19:01;7.00;;;4.55;;
45368;SDS011;51342;55.250;37.668;2023-08-01T01:24:31;6.53;;;4.22;;
45368;SDS011;51342;55.250;37.668;2023-08-01T01:27:04;6.78;;;4.20;;
45368;SDS011;51342;55.250;37.668;2023-08-01T01:29:37;3.97;;;3.58;;
45368;SDS011;51342;55.250;37.668;2023-08-01T01:32:09;4.78;;;4.30;;
45368;SDS011;51342;55.250;37.668;2023-08-01T01:34:41;5.38;;;3.80;;
45368;SDS011;51342;55.250;37.668;2023-08-01T01:37:12;5.93;;;4.28;;
45368;SDS011;51342;55.250;37.668;2023-08-01T01:39:44;4.20;;;3.80;;
45368;SDS011;51342;55.250;37.668;2023-08-01T01:42:15;5.45;;;3.63;;
45368;SDS011;51342;55.250;37.668;2023-08-01T01:44:47;3.28;;;2.97;;
45368;SDS011;51342;55.250;37.668;2023-08-01T01:47:19;4.65;;;3.40;;
45368;SDS011;51342;55.250;37.668;2023-08-01T01:49:50;3.10;;;2.80;;
45368;SDS011;51342;55.250;37.668;2023-08-01T01:52:22;5.05;;;2.92;;
45368;SDS011;51342;55.250;37.668;2023-08-01T01:54:53;3.45;;;3.08;;
45368;SDS011;51342;55.250;37.668;2023-08-01T01:57:25;2.85;;;2.65;;
45368;SDS011;51342;55.250;37.668;2023-08-01T01:59:56;3.97;;;2.80;;
45368;SDS011;51342;55.250;37.668;2023-08-01T02:05:53;3.70;;;2.72;;
45368;SDS011;51342;55.250;37.668;2023-08-01T02:08:24;3.47;;;3.03;;
45368;SDS011;51342;55.250;37.668;2023-08-01T02:10:56;5.05;;;3.15;;
45368;SDS011;51342;55.250;37.668;2023-08-01T02:13:29;3.83;;;3.35;;
45368;SDS011;51342;55.250;37.668;2023-08-01T02:16:00;7.15;;;4.20;;
45368;SDS011;51342;55.250;37.668;2023-08-01T02:18:31;4.22;;;3.10;;
45368;SDS011;51342;55.250;37.668;2023-08-01T02:21:03;5.90;;;3.72;;
45368;SDS011;51342;55.250;37.668;2023-08-01T02:23:34;4.47;;;3.67;;
45368;SDS011;51342;55.250;37.668;2023-08-01T02:26:08;5.68;;;4.22;;
45368;SDS011;51342;55.250;37.668;2023-08-01T02:28:39;5.78;;;3.72;;
45368;SDS011;51342;55.250;37.668;2023-08-01T02:31:10;6.40;;;3.72;;
45368;SDS011;51342;55.250;37.668;2023-08-01T02:33:42;3.95;;;3.25;;
45368;SDS011;51342;55.250;37.668;2023-08-01T02:36:13;4.63;;;3.40;;
45368;SDS011;51342;55.250;37.668;2023-08-01T02:38:44;5.88;;;4.57;;
45368;SDS011;51342;55.250;37.668;2023-08-01T02:41:16;6.78;;;4.07;;
45368;SDS011;51342;55.250;37.668;2023-08-01T02:43:47;6.82;;;4.60;;
45368;SDS011;51342;55.250;37.668;2023-08-01T02:46:19;4.88;;;4.00;;
45368;SDS011;51342;55.250;37.668;2023-08-01T02:48:50;7.18;;;4.50;;
45368;SDS011;51342;55.250;37.668;2023-08-01T02:51:23;4.03;;;3.50;;
45368;SDS011;51342;55.250;37.668;2023-08-01T02:53:54;4.72;;;3.65;;
45368;SDS011;51342;55.250;37.668;2023-08-01T02:56:25;6.28;;;3.65;;
45368;SDS011;51342;55.250;37.668;2023-08-01T02:58:58;6.05;;;4.32;;
45368;SDS011;51342;55.250;37.668;2023-08-01T03:01:30;5.35;;;3.60;;
45368;SDS011;51342;55.250;37.668;2023-08-01T03:04:04;6.70;;;4.13;;
45368;SDS011;51342;55.250;37.668;2023-08-01T03:06:42;6.07;;;3.65;;
45368;SDS011;51342;55.250;37.668;2023-08-01T03:09:13;5.90;;;4.25;;
45368;SDS011;51342;55.250;37.668;2023-08-01T03:11:45;5.25;;;3.80;;
45368;SDS011;51342;55.250;37.668;2023-08-01T03:14:16;6.22;;;3.80;;
45368;SDS011;51342;55.250;37.668;2023-08-01T03:16:47;5.53;;;3.60;;
45368;SDS011;51342;55.250;37.668;2023-08-01T03:19:19;6.00;;;3.83;;
45368;SDS011;51342;55.250;37.668;2023-08-01T03:21:51;5.35;;;4.00;;
45368;SDS011;51342;55.250;37.668;2023-08-01T03:24:22;5.88;;;3.97;;
45368;SDS011;51342;55.250;37.668;2023-08-01T03:26:53;4.55;;;3.72;;
45368;SDS011;51342;55.250;37.668;2023-08-01T03:29:25;10.48;;;4.43;;
45368;SDS011;51342;55.250;37.668;2023-08-01T03:31:56;5.70;;;3.83;;
45368;SDS011;51342;55.250;37.668;2023-08-01T03:34:27;6.03;;;4.57;;
45368;SDS011;51342;55.250;37.668;2023-08-01T03:36:59;5.32;;;4.03;;
45368;SDS011;51342;55.250;37.668;2023-08-01T03:39:30;5.90;;;4.05;;
45368;SDS011;51342;55.250;37.668;2023-08-01T03:42:01;5.75;;;3.60;;
45368;SDS011;51342;55.250;37.668;2023-08-01T03:44:33;5.97;;;3.83;;
45368;SDS011;51342;55.250;37.668;2023-08-01T03:47:04;6.65;;;3.90;;
45368;SDS011;51342;55.250;37.668;2023-08-01T03:49:37;6.15;;;3.72;;
45368;SDS011;51342;55.250;37.668;2023-08-01T03:52:09;6.13;;;3.88;;
45368;SDS011;51342;55.250;37.668;2023-08-01T03:54:41;6.82;;;3.90;;
45368;SDS011;51342;55.250;37.668;2023-08-01T03:57:12;4.63;;;3.95;;
45368;SDS011;51342;55.250;37.668;2023-08-01T03:59:43;5.38;;;4.38;;
45368;SDS011;51342;55.250;37.668;2023-08-01T04:05:09;6.03;;;3.53;;
45368;SDS011;51342;55.250;37.668;2023-08-01T04:07:41;3.45;;;3.15;;
45368;SDS011;51342;55.250;37.668;2023-08-01T04:10:12;5.72;;;3.47;;
45368;SDS011;51342;55.250;37.668;2023-08-01T04:12:44;4.20;;;3.50;;
45368;SDS011;51342;55.250;37.668;2023-08-01T04:15:16;7.18;;;3.70;;
45368;SDS011;51342;55.250;37.668;2023-08-01T04:17:47;5.57;;;3.40;;
45368;SDS011;51342;55.250;37.668;2023-08-01T04:20:18;7.00;;;3.72;;
45368;SDS011;51342;55.250;37.668;2023-08-01T04:22:50;5.55;;;3.53;;
45368;SDS011;51342;55.250;37.668;2023-08-01T04:25:21;7.40;;;3.50;;
45368;SDS011;51342;55.250;37.668;2023-08-01T04:27:55;7.00;;;3.92;;
45368;SDS011;51342;55.250;37.668;2023-08-01T04:30:27;4.30;;;3.70;;
45368;SDS011;51342;55.250;37.668;2023-08-01T04:32:58;6.55;;;3.72;;
45368;SDS011;51342;55.250;37.668;2023-08-01T04:35:29;5.45;;;3.28;;
45368;SDS011;51342;55.250;37.668;2023-08-01T04:38:01;4.93;;;3.25;;
45368;SDS011;51342;55.250;37.668;2023-08-01T04:40:32;4.93;;;3.58;;
45368;SDS011;51342;55.250;37.668;2023-08-01T04:43:03;7.88;;;3.63;;
45368;SDS011;51342;55.250;37.668;2023-08-01T04:45:35;8.20;;;3.28;;
45368;SDS011;51342;55.250;37.668;2023-08-01T04:48:07;3.90;;;2.90;;
45368;SDS011;51342;55.250;37.668;2023-08-01T04:50:38;4.05;;;2.60;;
45368;SDS011;51342;55.250;37.668;2023-08-01T04:53:09;3.42;;;2.50;;
45368;SDS011;51342;55.250;37.668;2023-08-01T04:55:42;4.40;;;2.97;;
45368;SDS011;51342;55.250;37.668;2023-08-01T04:58:13;3.05;;;2.47;;
45368;SDS011;51342;55.250;37.668;2023-08-01T05:00:44;4.20;;;2.70;;
45368;SDS011;51342;55.250;37.668;2023-08-01T05:03:16;3.22;;;2.70;;
45368;SDS011;51342;55.250;37.668;2023-08-01T05:05:47;2.50;;;2.30;;
45368;SDS011;51342;55.250;37.668;2023-08-01T05:08:18;4.10;;;3.00;;
45368;SDS011;51342;55.250;37.668;2023-08-01T05:10:50;2.92;;;2.22;;
45368;SDS011;51342;55.250;37.668;2023-08-01T05:13:21;4.30;;;2.60;;
45368;SDS011;51342;55.250;37.668;2023-08-01T05:15:52;3.70;;;3.05;;
45368;SDS011;51342;55.250;37.668;2023-08-01T05:18:24;3.80;;;2.40;;
45368;SDS011;51342;55.250;37.668;2023-08-01T05:20:55;3.80;;;2.78;;
45368;SDS011;51342;55.250;37.668;2023-08-01T05:23:26;3.85;;;2.53;;
45368;SDS011;51342;55.250;37.668;2023-08-01T05:25:58;3.53;;;2.33;;
45368;SDS011;51342;55.250;37.668;2023-08-01T05:28:29;2.85;;;2.10;;
45368;SDS011;51342;55.250;37.668;2023-08-01T05:31:00;4.07;;;2.40;;
45368;SDS011;51342;55.250;37.668;2023-08-01T05:33:32;5.72;;;2.45;;
45368;SDS011;51342;55.250;37.668;2023-08-01T05:36:03;4.18;;;2.10;;
45368;SDS011;51342;55.250;37.668;2023-08-01T05:38:34;3.10;;;1.95;;
45368;SDS011;51342;55.250;37.668;2023-08-01T05:41:06;2.70;;;1.90;;
45368;SDS011;51342;55.250;37.668;2023-08-01T05:43:37;4.70;;;2.58;;
45368;SDS011;51342;55.250;37.668;2023-08-01T05:46:09;3.80;;;2.40;;
45368;SDS011;51342;55.250;37.668;2023-08-01T05:48:41;2.92;;;2.28;;
45368;SDS011;51342;55.250;37.668;2023-08-01T05:51:12;3.50;;;2.40;;
45368;SDS011;51342;55.250;37.668;2023-08-01T05:53:44;3.88;;;2.65;;
45368;SDS011;51342;55.250;37.668;2023-08-01T05:56:15;5.10;;;3.28;;
45368;SDS011;51342;55.250;37.668;2023-08-01T05:58:46;2.78;;;2.22;;
45368;SDS011;51342;55.250;37.668;2023-08-01T06:01:18;4.75;;;2.33;;
45368;SDS011;51342;55.250;37.668;2023-08-01T06:06:44;3.30;;;2.40;;
45368;SDS011;51342;55.250;37.668;2023-08-01T06:09:15;5.00;;;2.53;;
45368;SDS011;51342;55.250;37.668;2023-08-01T06:11:47;3.90;;;2.20;;
45368;SDS011;51342;55.250;37.668;2023-08-01T06:14:18;3.60;;;3.05;;
45368;SDS011;51342;55.250;37.668;2023-08-01T06:16:49;4.82;;;2.45;;
45368;SDS011;51342;55.250;37.668;2023-08-01T06:19:21;3.42;;;2.67;;
45368;SDS011;51342;55.250;37.668;2023-08-01T06:21:52;3.15;;;2.50;;
45368;SDS011;51342;55.250;37.668;2023-08-01T06:24:24;3.78;;;2.08;;
45368;SDS011;51342;55.250;37.668;2023-08-01T06:26:55;4.07;;;2.15;;
45368;SDS011;51342;55.250;37.668;2023-08-01T06:29:27;3.03;;;2.40;;
45368;SDS011;51342;55.250;37.668;2023-08-01T06:31:58;3.58;;;2.38;;
45368;SDS011;51342;55.250;37.668;2023-08-01T06:34:29;3.80;;;2.67;;
45368;SDS011;51342;55.250;37.668;2023-08-01T06:37:01;3.40;;;2.17;;
45368;SDS011;51342;55.250;37.668;2023-08-01T06:39:32;3.95;;;2.50;;
45368;SDS011;51342;55.250;37.668;2023-08-01T06:42:04;5.40;;;2.67;;
45368;SDS011;51342;55.250;37.668;2023-08-01T06:44:36;3.85;;;2.10;;
45368;SDS011;51342;55.250;37.668;2023-08-01T06:47:07;3.28;;;2.22;;
45368;SDS011;51342;55.250;37.668;2023-08-01T06:49:39;4.20;;;2.33;;
45368;SDS011;51342;55.250;37.668;2023-08-01T06:52:10;3.90;;;2.63;;
45368;SDS011;51342;55.250;37.668;2023-08-01T06:54:41;3.78;;;2.75;;
45368;SDS011;51342;55.250;37.668;2023-08-01T06:57:13;3.72;;;2.35;;
45368;SDS011;51342;55.250;37.668;2023-08-01T06:59:44;3.70;;;2.63;;
45368;SDS011;51342;55.250;37.668;2023-08-01T07:02:16;6.30;;;3.38;;
45368;SDS011;51342;55.250;37.668;2023-08-01T07:04:47;6.18;;;2.97;;
45368;SDS011;51342;55.250;37.668;2023-08-01T07:07:18;4.32;;;2.80;;
45368;SDS011;51342;55.250;37.668;2023-08-01T07:09:50;3.85;;;3.00;;
45368;SDS011;51342;55.250;37.668;2023-08-01T07:12:21;4.47;;;2.72;;
45368;SDS011;51342;55.250;37.668;2023-08-01T07:14:52;4.13;;;2.80;;
45368;SDS011;51342;55.250;37.668;2023-08-01T07:17:24;5.18;;;2.78;;
45368;SDS011;51342;55.250;37.668;2023-08-01T07:19:55;2.88;;;2.55;;
45368;SDS011;51342;55.250;37.668;2023-08-01T07:22:26;3.58;;;2.67;;
45368;SDS011;51342;55.250;37.668;2023-08-01T07:24:58;4.20;;;3.10;;
45368;SDS011;51342;55.250;37.668;2023-08-01T07:27:29;5.18;;;3.00;;
45368;SDS011;51342;55.250;37.668;2023-08-01T07:30:01;5.03;;;2.50;;
45368;SDS011;51342;55.250;37.668;2023-08-01T07:32:32;5.53;;;2.80;;
45368;SDS011;51342;55.250;37.668;2023-08-01T07:35:06;5.47;;;2.97;;
45368;SDS011;51342;55.250;37.668;2023-08-01T07:37:37;4.22;;;2.83;;
45368;SDS011;51342;55.250;37.668;2023-08-01T07:40:09;3.55;;;2.60;;
45368;SDS011;51342;55.250;37.668;2023-08-01T07:42:41;3.25;;;2.25;;
45368;SDS011;51342;55.250;37.668;2023-08-01T07:45:12;4.18;;;2.50;;
45368;SDS011;51342;55.250;37.668;2023-08-01T07:47:43;2.83;;;2.40;;
45368;SDS011;51342;55.250;37.668;2023-08-01T07:50:15;3.80;;;2.70;;
45368;SDS011;51342;55.250;37.668;2023-08-01T07:52:46;4.10;;;2.70;;
45368;SDS011;51342;55.250;37.668;2023-08-01T07:55:19;2.65;;;2.28;;
45368;SDS011;51342;55.250;37.668;2023-08-01T07:57:51;2.78;;;2.20;;
45368;SDS011;51342;55.250;37.668;2023-08-01T08:00:23;4.22;;;2.78;;
45368;SDS011;51342;55.250;37.668;2023-08-01T08:02:54;3.55;;;2.45;;
45368;SDS011;51342;55.250;37.668;2023-08-01T08:08:20;3.30;;;3.00;;
45368;SDS011;51342;55.250;37.668;2023-08-01T08:10:51;3.33;;;2.60;;
45368;SDS011;51342;55.250;37.668;2023-08-01T08:13:23;4.07;;;3.00;;
45368;SDS011;51342;55.250;37.668;2023-08-01T08:15:55;3.67;;;2.80;;
45368;SDS011;51342;55.250;37.668;2023-08-01T08:18:27;6.35;;;3.22;;
45368;SDS011;51342;55.250;37.668;2023-08-01T08:20:59;3.78;;;3.00;;
45368;SDS011;51342;55.250;37.668;2023-08-01T08:23:30;3.58;;;2.70;;
45368;SDS011;51342;55.250;37.668;2023-08-01T08:26:01;4.60;;;3.05;;
45368;SDS011;51342;55.250;37.668;2023-08-01T08:28:36;3.60;;;2.63;;
45368;SDS011;51342;55.250;37.668;2023-08-01T08:31:07;5.03;;;2.83;;
45368;SDS011;51342;55.250;37.668;2023-08-01T08:33:39;4.50;;;2.78;;
45368;SDS011;51342;55.250;37.668;2023-08-01T08:36:10;4.20;;;2.65;;
45368;SDS011;51342;55.250;37.668;2023-08-01T08:38:42;3.92;;;2.58;;
45368;SDS011;51342;55.250;37.668;2023-08-01T08:41:13;3.40;;;2.70;;
45368;SDS011;51342;55.250;37.668;2023-08-01T08:43:50;3.40;;;2.60;;
45368;SDS011;51342;55.250;37.668;2023-08-01T08:46:28;3.53;;;2.60;;
45368;SDS011;51342;55.250;37.668;2023-08-01T08:49:00;3.55;;;2.30;;
45368;SDS011;51342;55.250;37.668;2023-08-01T08:51:32;4.53;;;2.70;;
45368;SDS011;51342;55.250;37.668;2023-08-01T08:54:04;2.97;;;2.60;;
45368;SDS011;51342;55.250;37.668;2023-08-01T08:56:36;3.00;;;2.45;;
45368;SDS011;51342;55.250;37.668;2023-08-01T09:03:09;3.13;;;2.63;;
45368;SDS011;51342;55.250;37.668;2023-08-01T09:05:50;2.92;;;2.58;;
45368;SDS011;51342;55.250;37.668;2023-08-01T09:08:26;3.97;;;2.70;;
45368;SDS011;51342;55.250;37.668;2023-08-01T09:11:01;2.72;;;2.50;;
45368;SDS011;51342;55.250;37.668;2023-08-01T09:13:32;3.38;;;2.88;;
45368;SDS011;51342;55.250;37.668;2023-08-01T09:16:06;3.95;;;2.67;;
45368;SDS011;51342;55.250;37.668;2023-08-01T09:18:51;3.25;;;2.72;;
45368;SDS011;51342;55.250;37.668;2023-08-01T09:21:23;4.10;;;2.45;;
45368;SDS011;51342;55.250;37.668;2023-08-01T09:23:56;4.07;;;2.60;;
45368;SDS011;51342;55.250;37.668;2023-08-01T09:26:28;3.25;;;2.55;;
45368;SDS011;51342;55.250;37.668;2023-08-01T09:29:01;4.03;;;2.45;;
45368;SDS011;51342;55.250;37.668;2023-08-01T09:31:33;2.78;;;2.38;;
45368;SDS011;51342;55.250;37.668;2023-08-01T09:34:21;3.05;;;2.65;;
45368;SDS011;51342;55.250;37.668;2023-08-01T09:36:58;3.58;;;2.75;;
45368;SDS011;51342;55.250;37.668;2023-08-01T09:39:30;3.10;;;2.37;;
45368;SDS011;51342;55.250;37.668;2023-08-01T09:42:02;3.40;;;2.67;;
45368;SDS011;51342;55.250;37.668;2023-08-01T09:44:34;4.93;;;3.38;;
45368;SDS011;51342;55.250;37.668;2023-08-01T09:47:06;5.38;;;2.97;;
45368;SDS011;51342;55.250;37.668;2023-08-01T09:49:46;4.95;;;2.80;;
45368;SDS011;51342;55.250;37.668;2023-08-01T09:52:27;2.92;;;2.55;;
45368;SDS011;51342;55.250;37.668;2023-08-01T09:55:00;7.38;;;3.50;;
45368;SDS011;51342;55.250;37.668;2023-08-01T09:57:32;6.53;;;3.25;;
45368;SDS011;51342;55.250;37.668;2023-08-01T10:00:08;6.03;;;3.22;;
45368;SDS011;51342;55.250;37.668;2023-08-01T10:02:43;6.63;;;3.00;;
45368;SDS011;51342;55.250;37.668;2023-08-01T10:08:10;8.00;;;3.95;;
45368;SDS011;51342;55.250;37.668;2023-08-01T10:10:44;5.05;;;3.17;;
45368;SDS011;51342;55.250;37.668;2023-08-01T10:13:16;5.68;;;3.00;;
45368;SDS011;51342;55.250;37.668;2023-08-01T10:15:48;5.88;;;3.25;;
45368;SDS011;51342;55.250;37.668;2023-08-01T10:18:21;4.88;;;2.97;;
45368;SDS011;51342;55.250;37.668;2023-08-01T10:20:54;4.15;;;2.60;;
45368;SDS011;51342;55.250;37.668;2023-08-01T10:23:26;4.53;;;2.97;;
45368;SDS011;51342;55.250;37.668;2023-08-01T10:25:58;3.00;;;2.70;;
45368;SDS011;51342;55.250;37.668;2023-08-01T10:28:41;4.15;;;2.83;;
45368;SDS011;51342;55.250;37.668;2023-08-01T10:31:20;3.83;;;2.63;;
45368;SDS011;51342;55.250;37.668;2023-08-01T10:33:52;3.47;;;2.70;;
45368;SDS011;51342;55.250;37.668;2023-08-01T10:36:35;3.78;;;2.92;;
45368;SDS011;51342;55.250;37.668;2023-08-01T10:39:07;3.72;;;2.25;;
45368;SDS011;51342;55.250;37.668;2023-08-01T10:41:38;2.80;;;2.60;;
45368;SDS011;51342;55.250;37.668;2023-08-01T10:46:47;3.20;;;2.78;;
45368;SDS011;51342;55.250;37.668;2023-08-01T10:49:21;3.88;;;2.63;;
45368;SDS011;51342;55.250;37.668;2023-08-01T10:52:26;3.30;;;3.00;;
45368;SDS011;51342;55.250;37.668;2023-08-01T10:57:34;4.70;;;3.13;;
45368;SDS011;51342;55.250;37.668;2023-08-01T11:00:07;5.68;;;2.72;;
45368;SDS011;51342;55.250;37.668;2023-08-01T11:02:40;5.57;;;2.83;;
45368;SDS011;51342;55.250;37.668;2023-08-01T11:05:12;3.72;;;2.92;;
45368;SDS011;51342;55.250;37.668;2023-08-01T11:07:52;4.03;;;2.80;;
45368;SDS011;51342;55.250;37.668;2023-08-01T11:10:31;4.60;;;2.70;;
45368;SDS011;51342;55.250;37.668;2023-08-01T11:13:03;6.38;;;3.00;;
45368;SDS011;51342;55.250;37.668;2023-08-01T11:15:36;3.00;;;2.60;;
45368;SDS011;51342;55.250;37.668;2023-08-01T11:18:09;3.65;;;2.97;;
45368;SDS011;51342;55.250;37.668;2023-08-01T11:20:40;5.35;;;3.10;;
45368;SDS011;51342;55.250;37.668;2023-08-01T11:23:12;4.07;;;2.90;;
45368;SDS011;51342;55.250;37.668;2023-08-01T11:25:43;5.32;;;3.08;;
45368;SDS011;51342;55.250;37.668;2023-08-01T11:28:16;4.53;;;2.92;;
45368;SDS011;51342;55.250;37.668;2023-08-01T11:30:48;5.90;;;3.00;;
45368;SDS011;51342;55.250;37.668;2023-08-01T11:33:20;4.03;;;2.85;;
45368;SDS011;51342;55.250;37.668;2023-08-01T11:35:54;6.30;;;3.13;;
45368;SDS011;51342;55.250;37.668;2023-08-01T11:38:33;6.03;;;3.45;;
45368;SDS011;51342;55.250;37.668;2023-08-01T11:41:05;8.10;;;3.70;;
45368;SDS011;51342;55.250;37.668;2023-08-01T11:43:37;5.55;;;3.75;;
45368;SDS011;51342;55.250;37.668;2023-08-01T11:46:12;5.00;;;3.30;;
45368;SDS011;51342;55.250;37.668;2023-08-01T11:48:44;5.25;;;3.85;;
45368;SDS011;51342;55.250;37.668;2023-08-01T11:51:23;5.60;;;3.45;;
45368;SDS011;51342;55.250;37.668;2023-08-01T11:53:58;7.13;;;3.78;;
45368;SDS011;51342;55.250;37.668;2023-08-01T11:56:33;5.55;;;3.47;;
45368;SDS011;51342;55.250;37.668;2023-08-01T11:59:08;6.38;;;3.65;;
45368;SDS011;51342;55.250;37.668;2023-08-01T12:01:44;4.85;;;3.90;;
45368;SDS011;51342;55.250;37.668;2023-08-01T12:04:26;5.18;;;3.70;;
45368;SDS011;51342;55.250;37.668;2023-08-01T12:09:57;7.00;;;3.97;;
45368;SDS011;51342;55.250;37.668;2023-08-01T12:12:30;5.75;;;3.80;;
45368;SDS011;51342;55.250;37.668;2023-08-01T12:15:01;6.25;;;3.85;;
45368;SDS011;51342;55.250;37.668;2023-08-01T12:17:33;5.18;;;3.63;;
45368;SDS011;51342;55.250;37.668;2023-08-01T12:20:05;5.93;;;3.88;;
45368;SDS011;51342;55.250;37.668;2023-08-01T12:22:36;6.75;;;3.88;;
45368;SDS011;51342;55.250;37.668;2023-08-01T12:25:08;3.92;;;3.30;;
45368;SDS011;51342;55.250;37.668;2023-08-01T12:27:40;4.30;;;3.63;;
45368;SDS011;51342;55.250;37.668;2023-08-01T12:30:11;5.13;;;3.80;;
45368;SDS011;51342;55.250;37.668;2023-08-01T12:32:42;4.55;;;3.92;;
45368;SDS011;51342;55.250;37.668;2023-08-01T12:35:14;5.03;;;3.70;;
45368;SDS011;51342;55.250;37.668;2023-08-01T12:37:45;5.72;;;3.60;;
45368;SDS011;51342;55.250;37.668;2023-08-01T12:40:17;5.38;;;3.42;;
45368;SDS011;51342;55.250;37.668;2023-08-01T12:42:48;6.32;;;4.00;;
45368;SDS011;51342;55.250;37.668;2023-08-01T12:45:20;5.47;;;3.35;;
45368;SDS011;51342;55.250;37.668;2023-08-01T12:47:51;5.10;;;4.00;;
45368;SDS011;51342;55.250;37.668;2023-08-01T12:50:22;4.28;;;3.70;;
45368;SDS011;51342;55.250;37.668;2023-08-01T12:52:54;5.07;;;3.30;;
45368;SDS011;51342;55.250;37.668;2023-08-01T12:55:25;6.30;;;3.50;;
45368;SDS011;51342;55.250;37.668;2023-08-01T12:57:57;5.65;;;4.30;;
45368;SDS011;51342;55.250;37.668;2023-08-01T13:00:29;5.57;;;3.85;;
45368;SDS011;51342;55.250;37.668;2023-08-01T13:03:01;5.40;;;3.55;;
45368;SDS011;51342;55.250;37.668;2023-08-01T13:05:39;3.67;;;3.35;;
45368;SDS011;51342;55.250;37.668;2023-08-01T13:08:12;4.68;;;3.50;;
45368;SDS011;51342;55.250;37.668;2023-08-01T13:10:44;12.73;;;4.10;;
45368;SDS011;51342;55.250;37.668;2023-08-01T13:13:17;4.47;;;3.35;;
45368;SDS011;51342;55.250;37.668;2023-08-01T13:15:48;6.45;;;3.40;;
45368;SDS011;51342;55.250;37.668;2023-08-01T13:18:20;3.83;;;3.40;;
45368;SDS011;51342;55.250;37.668;2023-08-01T13:20:51;4.53;;;3.47;;
45368;SDS011;51342;55.250;37.668;2023-08-01T13:23:23;5.80;;;3.38;;
45368;SDS011;51342;55.250;37.668;2023-08-01T13:25:54;4.13;;;3.35;;
45368;SDS011;51342;55.250;37.668;2023-08-01T13:28:26;5.05;;;3.63;;
45368;SDS011;51342;55.250;37.668;2023-08-01T13:30:57;6.05;;;3.50;;
45368;SDS011;51342;55.250;37.668;2023-08-01T13:33:29;4.55;;;3.50;;
45368;SDS011;51342;55.250;37.668;2023-08-01T13:36:00;3.67;;;3.17;;
45368;SDS011;51342;55.250;37.668;2023-08-01T13:38:32;6.30;;;3.67;;
45368;SDS011;51342;55.250;37.668;2023-08-01T13:41:03;6.05;;;3.88;;
45368;SDS011;51342;55.250;37.668;2023-08-01T13:43:35;7.38;;;3.53;;
45368;SDS011;51342;55.250;37.668;2023-08-01T13:46:25;4.90;;;3.45;;
45368;SDS011;51342;55.250;37.668;2023-08-01T13:48:56;6.95;;;3.70;;
45368;SDS011;51342;55.250;37.668;2023-08-01T13:51:27;4.70;;;3.65;;
45368;SDS011;51342;55.250;37.668;2023-08-01T13:54:02;4.60;;;3.78;;
45368;SDS011;51342;55.250;37.668;2023-08-01T13:56:34;5.32;;;4.00;;
45368;SDS011;51342;55.250;37.668;2023-08-01T13:59:06;6.72;;;3.95;;
45368;SDS011;51342;55.250;37.668;2023-08-01T14:01:38;5.53;;;3.80;;
45368;SDS011;51342;55.250;37.668;2023-08-01T14:04:11;4.97;;;3.72;;
45368;SDS011;51342;55.250;37.668;2023-08-01T14:06:44;5.85;;;4.10;;
45368;SDS011;51342;55.250;37.668;2023-08-01T14:09:22;6.32;;;4.03;;
45368;SDS011;51342;55.250;37.668;2023-08-01T14:11:54;4.55;;;3.97;;
45368;SDS011;51342;55.250;37.668;2023-08-01T14:14:26;4.45;;;4.05;;
45368;SDS011;51342;55.250;37.668;2023-08-01T14:16:58;4.78;;;3.88;;
45368;SDS011;51342;55.250;37.668;2023-08-01T14:19:29;5.55;;;4.05;;
45368;SDS011;51342;55.250;37.668;2023-08-01T14:22:01;4.47;;;3.75;;
45368;SDS011;51342;55.250;37.668;2023-08-01T14:24:33;4.20;;;3.80;;
45368;SDS011;51342;55.250;37.668;2023-08-01T14:27:05;4.97;;;4.53;;
45368;SDS011;51342;55.250;37.668;2023-08-01T14:29:37;5.50;;;4.45;;
45368;SDS011;51342;55.250;37.668;2023-08-01T14:32:09;3.95;;;3.47;;
45368;SDS011;51342;55.250;37.668;2023-08-01T14:34:40;5.70;;;3.67;;
45368;SDS011;51342;55.250;37.668;2023-08-01T14:37:12;4.38;;;3.60;;
45368;SDS011;51342;55.250;37.668;2023-08-01T14:39:43;4.88;;;3.15;;
45368;SDS011;51342;55.250;37.668;2023-08-01T14:42:15;4.45;;;3.45;;
45368;SDS011;51342;55.250;37.668;2023-08-01T14:44:53;3.95;;;3.20;;
45368;SDS011;51342;55.250;37.668;2023-08-01T14:47:25;4.47;;;3.17;;
45368;SDS011;51342;55.250;37.668;2023-08-01T14:49:56;5.15;;;3.33;;
45368;SDS011;51342;55.250;37.668;2023-08-01T14:52:28;3.55;;;3.00;;
45368;SDS011;51342;55.250;37.668;2023-08-01T14:55:00;5.28;;;3.58;;
45368;SDS011;51342;55.250;37.668;2023-08-01T14:57:31;5.18;;;3.42;;
45368;SDS011;51342;55.250;37.668;2023-08-01T15:00:03;6.10;;;3.33;;
45368;SDS011;51342;55.250;37.668;2023-08-01T15:02:35;5.97;;;3.45;;
45368;SDS011;51342;55.250;37.668;2023-08-01T15:05:07;4.63;;;3.75;;
45368;SDS011;51342;55.250;37.668;2023-08-01T15:07:39;4.15;;;3.25;;
45368;SDS011;51342;55.250;37.668;2023-08-01T15:10:10;6.13;;;3.40;;
45368;SDS011;51342;55.250;37.668;2023-08-01T15:12:42;6.35;;;3.80;;
45368;SDS011;51342;55.250;37.668;2023-08-01T15:15:13;6.22;;;3.78;;
45368;SDS011;51342;55.250;37.668;2023-08-01T15:17:45;6.95;;;3.67;;
45368;SDS011;51342;55.250;37.668;2023-08-01T15:20:16;5.53;;;3.80;;
45368;SDS011;51342;55.250;37.668;2023-08-01T15:22:48;6.40;;;3.80;;
45368;SDS011;51342;55.250;37.668;2023-08-01T15:25:20;6.07;;;3.55;;
45368;SDS011;51342;55.250;37.668;2023-08-01T15:27:51;3.83;;;3.20;;
45368;SDS011;51342;55.250;37.668;2023-08-01T15:30:22;4.28;;;3.53;;
45368;SDS011;51342;55.250;37.668;2023-08-01T15:32:54;5.32;;;3.55;;
45368;SDS011;51342;55.250;37.668;2023-08-01T15:35:28;6.25;;;3.72;;
45368;SDS011;51342;55.250;37.668;2023-08-01T15:38:01;7.00;;;3.90;;